Hlavní strana
METAR-TAF:

METAR-TAF

Letiště :

Uljanovsk, Rusko

zeměpisná šířka: 54-21N, zeměpisná délka: 048-23E, výška: 77 m

Aktuální stav počasí

Zpráva byla vytvořena před 21 minutami, v 23:00 UTC
Jihojihozápadní vítr 6 kt
Teplota 10°C
Vlhkost vzduchu 87%
Tlak 1001 hPa
Viditelnost 10 km a více
Zataženo ve výšce 3300 ft

METAR: UWLW 212300Z 21003MPS 9999 OVC033 10/08 Q1001 R20/290250 NOSIG RMK QFE745

Čas: 02:21 (23:21 UTC)

Předpověď počasí

Zpráva byla vytvořena před 3 hodinami a 30 minutami, v 19:51 UTC
Předpověď platná od 21 v 21 UTC do 22 v 21 UTC
Západojihozápadní vítr 12 kt
Viditelnost 10 km a více
Oblačno až skoro zataženo ve výšce 2000 ft
Dočasný
od 21 v 21 UTC do 22 v 01 UTC
Jihojihozápadní vítr 12 kt s nárazy do 25 kt
Viditelnost: 6000 m
Zataženo ve výšce 1600 ft
slabý déšť
Dočasný
od 22 v 05 UTC do 22 v 15 UTC
Jižní vítr 19 kt s nárazy do 29 kt

TAF: UWLW 211951Z 2121/2221 24006MPS 9999 BKN020 TX12/2211Z TN08/2121Z TEMPO 2121/2201 20006G13MPS 6000 -RA OVC016 TEMPO 2205/2215 18010G15MPS

Stav a předpovědi počasí z více než 4 000 letišť (zprávy METAR a TAF).

Červené a žluté tečky na mapě představují dostupné meteorologické stanice.

Když kurzor umístíte na tečku, zobrazí se název stanice.

Pak kliknutím zobrazíte stav a předpověď počasí.

Chcete-li změnit mapu, kliknutím na zelené tlačítko se znaménkem +mapu přiblížíte, kliknutím na zelené tlačítko se znaménkem – mapu oddálíte a kliknutím na zelené šipky přejdete na sousední mapy.


METAR-TAF: